createdAt,value
2023-12-15T00:00:50.081Z,12.70
2023-12-15T00:03:53.317Z,13.40
2023-12-15T00:06:56.381Z,12.77
2023-12-15T00:09:59.137Z,11.60
2023-12-15T00:13:03.372Z,14.40
2023-12-15T00:16:07.259Z,12.50
2023-12-15T00:19:10.306Z,11.77
2023-12-15T00:22:13.382Z,11.93
2023-12-15T00:25:16.344Z,12.65
2023-12-15T00:28:20.652Z,11.60
2023-12-15T00:31:23.366Z,11.83
2023-12-15T00:34:26.223Z,13.98
2023-12-15T00:37:29.732Z,12.18
2023-12-15T00:40:32.387Z,9.93
2023-12-15T00:43:36.808Z,11.60
2023-12-15T00:46:39.519Z,11.90
2023-12-15T00:49:42.449Z,12.43
2023-12-15T00:52:45.563Z,11.05
2023-12-15T00:55:48.288Z,10.38
2023-12-15T00:58:52.578Z,12.73
2023-12-15T01:01:55.409Z,12.73
2023-12-15T01:04:58.367Z,11.60
2023-12-15T01:08:01.178Z,11.77
2023-12-15T01:11:04.384Z,11.60
2023-12-15T01:14:08.550Z,14.45
2023-12-15T01:17:11.700Z,11.65
2023-12-15T01:20:15.463Z,11.30
2023-12-15T01:23:18.297Z,11.37
2023-12-15T01:26:21.216Z,12.73
2023-12-15T01:29:25.482Z,11.32
2023-12-15T01:32:28.401Z,11.40
2023-12-15T01:35:31.320Z,11.43
2023-12-15T01:38:34.109Z,12.07
2023-12-15T01:41:37.060Z,10.25
2023-12-15T01:44:41.787Z,9.95
2023-12-15T01:47:45.630Z,11.10
2023-12-15T01:50:48.526Z,13.13
2023-12-15T01:53:51.251Z,11.37
2023-12-15T01:56:54.200Z,11.23
2023-12-15T01:59:58.423Z,11.30
2023-12-15T02:03:01.179Z,11.88
2023-12-15T02:06:04.194Z,12.33
2023-12-15T02:09:06.938Z,10.40
2023-12-15T02:12:10.564Z,11.85
2023-12-15T02:15:15.279Z,13.10
2023-12-15T02:18:18.219Z,10.27
2023-12-15T02:21:21.175Z,10.43
2023-12-15T02:24:25.523Z,13.00
2023-12-15T02:27:28.693Z,10.32
2023-12-15T02:30:32.026Z,11.98
2023-12-15T02:33:34.952Z,11.38
2023-12-15T02:36:38.343Z,9.87
2023-12-15T02:39:42.449Z,9.80
2023-12-15T02:42:45.344Z,10.93
2023-12-15T02:45:48.367Z,9.48
2023-12-15T02:48:51.298Z,11.45
2023-12-15T02:51:54.324Z,11.33
2023-12-15T02:54:58.417Z,11.47
2023-12-15T02:58:01.587Z,12.27
2023-12-15T03:01:05.106Z,12.00
2023-12-15T03:04:07.986Z,13.98
2023-12-15T03:07:11.447Z,12.47
2023-12-15T03:10:19.232Z,12.37
2023-12-15T03:13:22.131Z,10.73
2023-12-15T03:16:25.491Z,11.30
2023-12-15T03:19:28.440Z,13.07
2023-12-15T03:22:31.285Z,14.03
2023-12-15T03:25:35.485Z,12.10
2023-12-15T03:28:40.832Z,13.52
2023-12-15T03:31:43.571Z,14.45
2023-12-15T03:34:46.423Z,12.05
2023-12-15T03:37:49.286Z,13.30
2023-12-15T03:40:53.434Z,12.70
2023-12-15T03:43:56.364Z,12.38
2023-12-15T03:46:59.279Z,11.73
2023-12-15T03:50:04.754Z,10.63
2023-12-15T03:53:07.810Z,11.67
2023-12-15T03:56:12.366Z,11.67
2023-12-15T03:59:15.303Z,10.85
2023-12-15T04:02:20.299Z,12.45
2023-12-15T04:05:23.471Z,10.15
2023-12-15T04:08:26.420Z,10.57
2023-12-15T04:11:31.207Z,11.30
2023-12-15T04:14:34.997Z,12.18
2023-12-15T04:17:38.236Z,11.27
2023-12-15T04:20:41.367Z,10.02
2023-12-15T04:23:44.186Z,11.70
2023-12-15T04:26:48.555Z,10.70
2023-12-15T04:29:51.396Z,11.73
2023-12-15T04:32:54.141Z,10.23
2023-12-15T04:35:57.014Z,10.00
2023-12-15T04:38:59.870Z,9.50
2023-12-15T04:42:03.986Z,9.17
2023-12-15T04:45:08.811Z,9.93
2023-12-15T04:48:11.721Z,8.50
2023-12-15T04:51:15.645Z,9.48
2023-12-15T04:54:18.710Z,10.33
2023-12-15T04:57:22.785Z,10.37
2023-12-15T05:00:26.044Z,9.48
2023-12-15T05:03:29.128Z,14.43
2023-12-15T05:06:32.912Z,8.60
2023-12-15T05:09:36.207Z,8.37
2023-12-15T05:12:40.736Z,9.00
2023-12-15T05:15:43.668Z,9.25
2023-12-15T05:18:47.094Z,9.27
2023-12-15T05:21:50.270Z,9.20
2023-12-15T05:24:53.574Z,14.90
2023-12-15T05:27:58.105Z,10.00
2023-12-15T05:31:01.105Z,10.20
2023-12-15T05:34:04.272Z,9.73
2023-12-15T05:37:07.902Z,8.55
2023-12-15T05:40:13.306Z,10.93
2023-12-15T05:43:18.064Z,11.68
2023-12-15T05:46:21.716Z,10.10
2023-12-15T05:49:25.472Z,11.80
2023-12-15T05:52:28.830Z,10.30
2023-12-15T05:55:34.489Z,11.27
2023-12-15T05:58:38.611Z,10.40
2023-12-15T06:01:42.094Z,13.15
2023-12-15T06:04:44.994Z,10.98
2023-12-15T06:07:49.703Z,13.60
2023-12-15T06:10:52.937Z,11.20
2023-12-15T06:13:58.113Z,11.73
2023-12-15T06:17:02.304Z,13.82
2023-12-15T06:20:08.481Z,13.93
2023-12-15T06:23:11.562Z,13.93
2023-12-15T06:26:19.344Z,16.93
2023-12-15T06:29:23.562Z,14.85
2023-12-15T06:32:26.697Z,13.98
2023-12-15T06:35:29.651Z,14.55
2023-12-15T06:38:32.487Z,16.58
2023-12-15T06:41:35.748Z,19.67
2023-12-15T06:44:40.980Z,14.50
2023-12-15T06:47:44.178Z,18.48
2023-12-15T06:50:47.306Z,20.73
2023-12-15T06:53:50.126Z,16.90
2023-12-15T06:56:52.995Z,19.20
2023-12-15T06:59:57.699Z,18.13
2023-12-15T07:03:00.581Z,17.45
2023-12-15T07:06:03.910Z,18.25
2023-12-15T07:09:06.684Z,17.75
2023-12-15T07:12:11.040Z,19.07
2023-12-15T07:15:16.508Z,18.52
2023-12-15T07:18:19.529Z,16.88
2023-12-15T07:21:22.625Z,19.55
2023-12-15T07:24:26.752Z,22.48
2023-12-15T07:27:29.635Z,19.73
2023-12-15T07:30:33.927Z,20.98
2023-12-15T07:33:40.283Z,23.15
2023-12-15T07:36:44.039Z,22.02
2023-12-15T07:39:49.505Z,22.02
2023-12-15T07:42:52.200Z,23.73
2023-12-15T07:45:56.308Z,20.10
2023-12-15T07:48:59.603Z,24.60
2023-12-15T07:52:02.855Z,24.42
2023-12-15T07:55:06.388Z,23.08
2023-12-15T07:58:11.309Z,23.23
2023-12-15T08:01:15.431Z,24.08
2023-12-15T08:04:22.459Z,21.40
2023-12-15T08:07:25.210Z,27.98
2023-12-15T08:10:30.693Z,23.80
2023-12-15T08:13:34.060Z,28.03
2023-12-15T08:16:41.105Z,28.48
2023-12-15T08:19:45.918Z,28.02
2023-12-15T08:22:48.770Z,26.77
2023-12-15T08:25:51.524Z,30.20
2023-12-15T08:28:55.485Z,31.90
2023-12-15T08:32:00.137Z,28.60
2023-12-15T08:35:03.702Z,26.25
2023-12-15T08:38:06.667Z,27.30
2023-12-15T08:41:09.942Z,26.77
2023-12-15T08:44:20.025Z,29.43
2023-12-15T08:47:33.123Z,28.77
2023-12-15T08:50:36.192Z,31.33
2023-12-15T08:53:40.425Z,27.00
2023-12-15T08:56:43.320Z,28.88
2023-12-15T08:59:48.243Z,30.60
2023-12-15T09:02:54.678Z,31.92
2023-12-15T09:06:17.740Z,30.92
2023-12-15T09:09:25.342Z,29.40
2023-12-15T09:12:28.278Z,28.48
2023-12-15T09:15:34.841Z,26.20
2023-12-15T09:18:39.942Z,26.08
2023-12-15T09:21:45.148Z,24.83
2023-12-15T09:24:48.130Z,30.70
2023-12-15T09:27:50.847Z,33.00
2023-12-15T09:30:56.910Z,29.60
2023-12-15T09:34:04.074Z,27.70
2023-12-15T09:37:09.100Z,24.25
2023-12-15T09:40:12.857Z,27.08
2023-12-15T09:43:15.682Z,30.55
2023-12-15T09:46:18.740Z,29.87
2023-12-15T09:49:25.913Z,27.60
2023-12-15T09:52:29.162Z,28.30
2023-12-15T09:55:38.437Z,28.98
2023-12-15T09:58:52.347Z,27.67
2023-12-15T10:02:00.011Z,25.07
2023-12-15T10:05:04.550Z,26.73
2023-12-15T10:08:09.099Z,26.65
2023-12-15T10:11:14.819Z,26.48
2023-12-15T10:14:20.858Z,24.17
2023-12-15T10:17:25.818Z,23.17
2023-12-15T10:20:31.418Z,24.58
2023-12-15T10:23:35.962Z,25.15
2023-12-15T10:26:40.340Z,25.27
2023-12-15T10:29:44.823Z,28.70
2023-12-15T10:32:47.911Z,26.10
2023-12-15T10:35:52.485Z,25.45
2023-12-15T10:39:00.094Z,25.00
2023-12-15T10:42:07.293Z,24.38
2023-12-15T10:45:11.233Z,24.48
2023-12-15T10:48:17.687Z,23.47
2023-12-15T10:51:32.078Z,25.23
2023-12-15T10:54:38.352Z,26.42
2023-12-15T10:57:46.533Z,23.52
2023-12-15T11:00:52.482Z,26.13
2023-12-15T11:03:55.458Z,29.27
2023-12-15T11:07:03.336Z,25.35
2023-12-15T11:10:07.560Z,23.92
2023-12-15T11:13:44.910Z,22.67
2023-12-15T11:16:47.984Z,22.60
2023-12-15T11:20:01.374Z,24.40
2023-12-15T11:23:10.980Z,22.83
2023-12-15T11:26:21.926Z,27.50
2023-12-15T11:29:24.962Z,24.95
2023-12-15T11:32:31.831Z,23.48
2023-12-15T11:35:34.981Z,25.20
2023-12-15T11:38:42.363Z,25.15
2023-12-15T11:41:48.793Z,27.13
2023-12-15T11:44:51.763Z,24.67
2023-12-15T11:47:55.735Z,24.13
2023-12-15T11:50:59.001Z,24.23
2023-12-15T11:54:12.083Z,24.48
2023-12-15T11:57:23.228Z,26.52
2023-12-15T12:00:27.390Z,28.65
2023-12-15T12:03:33.480Z,29.23
2023-12-15T12:06:38.454Z,28.77
2023-12-15T12:09:42.802Z,26.13
2023-12-15T12:12:45.699Z,25.27
2023-12-15T12:15:53.580Z,27.58
2023-12-15T12:18:57.981Z,28.55
2023-12-15T12:22:00.839Z,30.27
2023-12-15T12:25:08.282Z,28.15
2023-12-15T12:28:11.035Z,27.95
2023-12-15T12:31:16.146Z,27.35
2023-12-15T12:34:19.165Z,28.23
2023-12-15T12:37:22.078Z,27.73
2023-12-15T12:40:30.191Z,23.30
2023-12-15T12:43:32.918Z,26.73
2023-12-15T12:46:36.072Z,28.33
2023-12-15T12:49:49.575Z,28.80
2023-12-15T12:52:57.548Z,28.07
2023-12-15T12:56:02.001Z,25.05
2023-12-15T12:59:09.512Z,28.98
2023-12-15T13:02:20.534Z,28.83
2023-12-15T13:05:24.971Z,24.65
2023-12-15T13:08:27.978Z,28.50
2023-12-15T13:11:32.195Z,28.38
2023-12-15T13:14:35.191Z,28.35
2023-12-15T13:17:38.030Z,27.92
2023-12-15T13:20:41.248Z,28.95
2023-12-15T13:23:44.303Z,32.30
2023-12-15T13:26:49.734Z,28.25
2023-12-15T13:29:55.245Z,27.50
2023-12-15T13:32:58.620Z,29.30
2023-12-15T13:36:10.796Z,31.40
2023-12-15T13:39:18.691Z,30.63
2023-12-15T13:42:31.650Z,28.00
2023-12-15T13:45:41.556Z,29.83
2023-12-15T13:48:48.450Z,31.05
2023-12-15T13:51:51.226Z,30.55
2023-12-15T13:54:55.870Z,26.33
2023-12-15T13:58:02.678Z,28.63
2023-12-15T14:01:05.853Z,32.10
2023-12-15T14:04:14.583Z,30.45
2023-12-15T14:07:17.630Z,28.50
2023-12-15T14:10:20.381Z,28.53
2023-12-15T14:13:24.735Z,26.63
2023-12-15T14:16:40.739Z,28.77
2023-12-15T14:19:49.184Z,26.48
2023-12-15T14:22:55.570Z,30.70
2023-12-15T14:25:58.309Z,26.33
2023-12-15T14:29:05.023Z,27.58
2023-12-15T14:32:08.598Z,30.63
2023-12-15T14:35:14.306Z,32.85
2023-12-15T14:38:19.145Z,29.90
2023-12-15T14:41:24.592Z,26.73
2023-12-15T14:44:28.779Z,25.52
2023-12-15T14:47:31.651Z,30.92
2023-12-15T14:50:38.601Z,28.50
2023-12-15T14:53:41.581Z,26.48
2023-12-15T14:56:44.712Z,25.97
2023-12-15T14:59:49.646Z,29.90
2023-12-15T15:02:52.631Z,28.08
2023-12-15T15:05:55.731Z,29.60
2023-12-15T15:08:58.552Z,28.55
2023-12-15T15:12:02.628Z,29.00
2023-12-15T15:15:09.680Z,28.77
2023-12-15T15:18:14.544Z,27.17
2023-12-15T15:21:18.046Z,34.25
2023-12-15T15:24:22.130Z,31.83
2023-12-15T15:27:30.880Z,32.80
2023-12-15T15:30:37.181Z,31.60
2023-12-15T15:33:40.066Z,30.35
2023-12-15T15:36:43.145Z,35.15
2023-12-15T15:39:45.972Z,32.00
2023-12-15T15:42:55.293Z,31.87
2023-12-15T15:46:01.938Z,37.75
2023-12-15T15:49:04.984Z,35.53
2023-12-15T15:52:08.310Z,29.60
2023-12-15T15:55:14.125Z,35.83
2023-12-15T15:58:17.035Z,35.20
2023-12-15T16:01:35.337Z,33.90
2023-12-15T16:04:43.661Z,31.77
2023-12-15T16:07:46.393Z,39.60
2023-12-15T16:10:53.295Z,32.97
2023-12-15T16:14:02.498Z,32.03
2023-12-15T16:17:15.381Z,37.10
2023-12-15T16:20:23.282Z,33.83
2023-12-15T16:23:28.100Z,30.90
2023-12-15T16:26:34.314Z,34.63
2023-12-15T16:29:39.461Z,34.83
2023-12-15T16:32:44.239Z,36.38
2023-12-15T16:35:48.375Z,38.40
2023-12-15T16:38:52.064Z,31.77
2023-12-15T16:42:03.557Z,30.30
2023-12-15T16:45:09.469Z,34.17
2023-12-15T16:48:18.275Z,32.35
2023-12-15T16:51:23.721Z,27.00
2023-12-15T16:54:26.610Z,33.90
2023-12-15T16:57:29.362Z,28.35
2023-12-15T17:00:32.262Z,24.80
2023-12-15T17:03:38.529Z,28.33
2023-12-15T17:06:42.611Z,30.65
2023-12-15T17:09:47.452Z,29.92
2023-12-15T17:12:53.641Z,27.70
2023-12-15T17:15:58.263Z,27.07
2023-12-15T17:19:02.764Z,31.23
2023-12-15T17:22:05.566Z,28.42
2023-12-15T17:25:12.920Z,30.20
2023-12-15T17:28:26.405Z,32.28
2023-12-15T17:31:32.227Z,32.27
2023-12-15T17:34:36.535Z,30.58
2023-12-15T17:37:39.614Z,30.85
2023-12-15T17:40:42.472Z,29.57
2023-12-15T17:43:45.606Z,31.43
2023-12-15T17:46:48.382Z,29.45
2023-12-15T17:49:52.780Z,29.90
2023-12-15T17:52:55.539Z,27.77
2023-12-15T17:55:58.696Z,31.70
2023-12-15T17:59:01.404Z,30.23
2023-12-15T18:02:06.703Z,31.42
2023-12-15T18:05:11.277Z,31.05
2023-12-15T18:08:14.176Z,31.98
2023-12-15T18:11:21.168Z,31.37
2023-12-15T18:14:24.227Z,31.27
2023-12-15T18:17:27.016Z,37.88
2023-12-15T18:20:31.307Z,33.50
2023-12-15T18:23:34.005Z,35.50
2023-12-15T18:26:38.311Z,29.90
2023-12-15T18:29:41.029Z,33.43
2023-12-15T18:32:44.762Z,30.45
2023-12-15T18:35:48.937Z,37.85
2023-12-15T18:38:51.795Z,33.60
2023-12-15T18:41:54.565Z,25.93
2023-12-15T18:44:57.442Z,30.77
2023-12-15T18:48:00.296Z,26.02
2023-12-15T18:51:05.056Z,27.63
2023-12-15T18:54:09.856Z,27.60
2023-12-15T18:57:13.613Z,31.23
2023-12-15T19:00:19.875Z,31.77
2023-12-15T19:03:26.740Z,26.15
2023-12-15T19:06:30.957Z,27.27
2023-12-15T19:09:34.161Z,33.67
2023-12-15T19:12:37.828Z,29.07
2023-12-15T19:15:40.634Z,33.63
2023-12-15T19:18:44.883Z,27.35
2023-12-15T19:21:49.031Z,27.83
2023-12-15T19:24:55.680Z,26.70
2023-12-15T19:27:58.678Z,30.63
2023-12-15T19:31:01.854Z,25.10
2023-12-15T19:34:04.983Z,27.90
2023-12-15T19:37:09.355Z,28.80
2023-12-15T19:40:14.343Z,34.95
2023-12-15T19:43:17.170Z,26.33
2023-12-15T19:46:21.809Z,29.00
2023-12-15T19:49:26.101Z,30.55
2023-12-15T19:52:32.102Z,28.13
2023-12-15T19:55:37.375Z,27.67
2023-12-15T19:58:40.222Z,31.13
2023-12-15T20:01:43.035Z,29.17
2023-12-15T20:04:46.533Z,32.05
2023-12-15T20:07:51.048Z,26.63
2023-12-15T20:10:54.069Z,30.42
2023-12-15T20:13:56.909Z,32.13
2023-12-15T20:16:59.830Z,27.87
2023-12-15T20:20:02.709Z,25.15
2023-12-15T20:23:07.060Z,27.30
2023-12-15T20:26:10.466Z,25.95
2023-12-15T20:29:14.530Z,34.03
2023-12-15T20:32:17.237Z,32.33
2023-12-15T20:35:20.437Z,31.10
2023-12-15T20:38:24.717Z,30.27
2023-12-15T20:41:27.708Z,29.23
2023-12-15T20:44:30.455Z,28.07
2023-12-15T20:47:36.614Z,29.97
2023-12-15T20:50:39.609Z,31.13
2023-12-15T20:53:43.853Z,28.27
2023-12-15T20:56:46.680Z,23.33
2023-12-15T20:59:49.556Z,26.27
2023-12-15T21:02:52.308Z,28.60
2023-12-15T21:05:55.322Z,28.20
2023-12-15T21:09:00.113Z,24.88
2023-12-15T21:12:03.989Z,26.55
2023-12-15T21:15:07.685Z,23.77
2023-12-15T21:18:12.756Z,29.60
2023-12-15T21:21:15.562Z,23.05
2023-12-15T21:24:21.595Z,26.70
2023-12-15T21:27:24.379Z,26.08
2023-12-15T21:30:30.385Z,29.33
2023-12-15T21:33:33.142Z,30.00
2023-12-15T21:36:36.026Z,25.73
2023-12-15T21:39:42.112Z,29.08
2023-12-15T21:42:45.230Z,24.23
2023-12-15T21:45:47.952Z,23.20
2023-12-15T21:48:50.917Z,23.70
2023-12-15T21:51:53.916Z,20.45
2023-12-15T21:54:58.164Z,20.92
2023-12-15T21:58:01.178Z,23.30
2023-12-15T22:01:04.118Z,19.00
2023-12-15T22:04:08.891Z,26.97
2023-12-15T22:07:11.780Z,22.95
2023-12-15T22:10:16.548Z,23.40
2023-12-15T22:13:19.929Z,20.48
2023-12-15T22:16:22.890Z,19.90
2023-12-15T22:19:26.108Z,20.50
2023-12-15T22:22:29.128Z,24.05
2023-12-15T22:25:33.293Z,18.77
2023-12-15T22:28:36.238Z,21.33
2023-12-15T22:31:43.224Z,18.63
2023-12-15T22:34:47.642Z,22.30
2023-12-15T22:37:50.397Z,22.92
2023-12-15T22:40:54.607Z,24.38
2023-12-15T22:43:57.319Z,24.02
2023-12-15T22:47:00.217Z,24.10
2023-12-15T22:50:04.383Z,23.30
2023-12-15T22:53:07.558Z,22.30
2023-12-15T22:56:12.587Z,16.95
2023-12-15T22:59:15.760Z,23.20
2023-12-15T23:02:18.505Z,21.80
2023-12-15T23:05:21.534Z,18.93
2023-12-15T23:08:24.307Z,20.13
2023-12-15T23:11:28.612Z,24.00
2023-12-15T23:14:31.390Z,19.33
2023-12-15T23:17:34.661Z,22.10
2023-12-15T23:20:37.832Z,21.70
2023-12-15T23:23:40.700Z,21.95
2023-12-15T23:26:44.756Z,21.27
2023-12-15T23:29:47.677Z,20.05
2023-12-15T23:32:50.511Z,22.40
2023-12-15T23:35:53.382Z,25.13
2023-12-15T23:38:56.672Z,23.20
2023-12-15T23:42:00.872Z,23.60
2023-12-15T23:45:04.167Z,22.58
2023-12-15T23:48:07.313Z,20.75
2023-12-15T23:51:10.215Z,18.25
2023-12-15T23:54:13.201Z,19.90
2023-12-15T23:57:17.306Z,19.33
